createdAt,value
2018-07-09T00:03:49.716Z,15.25
2018-07-09T00:06:18.842Z,15.35
2018-07-09T00:08:49.833Z,15.38
2018-07-09T00:11:18.905Z,15.19
2018-07-09T00:16:28.674Z,15.06
2018-07-09T00:21:33.463Z,15.02
2018-07-09T00:24:02.514Z,14.83
2018-07-09T00:26:31.568Z,14.69
2018-07-09T00:31:36.417Z,14.74
2018-07-09T00:36:43.286Z,14.72
2018-07-09T00:39:12.337Z,14.57
2018-07-09T00:41:41.391Z,14.46
2018-07-09T00:44:10.492Z,14.51
2018-07-09T00:46:39.533Z,14.57
2018-07-09T00:49:08.685Z,14.41
2018-07-09T00:51:38.690Z,14.45
2018-07-09T00:54:07.735Z,14.36
2018-07-09T00:59:12.639Z,14.37
2018-07-09T01:01:45.726Z,14.26
2018-07-09T01:04:14.781Z,14.21
2018-07-09T01:06:44.854Z,14.11
2018-07-09T01:09:13.910Z,14.20
2018-07-09T01:11:42.957Z,14.10
2018-07-09T01:16:48.723Z,14.18
2018-07-09T01:19:18.838Z,14.31
2018-07-09T01:21:51.955Z,14.19
2018-07-09T01:24:21.001Z,14.24
2018-07-09T01:26:50.057Z,14.28
2018-07-09T01:29:20.058Z,14.30
2018-07-09T01:34:24.991Z,14.22
2018-07-09T01:36:54.030Z,14.26
2018-07-09T01:39:23.097Z,14.26
2018-07-09T01:41:53.128Z,14.09
2018-07-09T01:46:58.894Z,14.04
2018-07-09T01:49:28.921Z,14.15
2018-07-09T01:52:01.205Z,14.06
2018-07-09T01:57:06.009Z,14.05
2018-07-09T02:02:10.818Z,14.15
2018-07-09T02:04:40.766Z,13.99
2018-07-09T02:07:09.819Z,13.87
2018-07-09T02:14:08.883Z,13.75
2018-07-09T02:16:39.829Z,13.59
2018-07-09T02:19:08.902Z,13.47
2018-07-09T02:21:39.951Z,13.40
2018-07-09T02:24:09.001Z,13.34
2018-07-09T02:26:39.961Z,13.32
2018-07-09T02:29:10.007Z,13.38
2018-07-09T02:31:40.037Z,13.43
2018-07-09T02:34:09.101Z,13.46
2018-07-09T02:36:40.076Z,13.44
2018-07-09T02:39:10.273Z,13.26
2018-07-09T02:41:39.326Z,13.12
2018-07-09T02:44:08.438Z,13.06
2018-07-09T02:46:38.405Z,13.00
2018-07-09T02:49:07.483Z,12.93
2018-07-09T02:51:39.891Z,12.91
2018-07-09T02:54:10.934Z,12.84
2018-07-09T02:56:40.903Z,12.86
2018-07-09T02:59:10.014Z,12.84
2018-07-09T03:01:39.224Z,12.87
2018-07-09T03:04:08.270Z,13.03
2018-07-09T03:09:15.053Z,13.10
2018-07-09T03:11:44.129Z,13.00
2018-07-09T03:14:13.202Z,12.94
2018-07-09T03:16:42.418Z,13.06
2018-07-09T03:19:13.520Z,13.01
2018-07-09T03:21:44.452Z,13.06
2018-07-09T03:24:13.832Z,13.10
2018-07-09T03:26:42.867Z,12.93
2018-07-09T03:29:12.025Z,12.82
2018-07-09T03:31:43.142Z,12.79
2018-07-09T03:36:48.985Z,12.95
2018-07-09T03:39:18.112Z,12.91
2018-07-09T03:41:47.254Z,12.86
2018-07-09T03:44:16.285Z,12.84
2018-07-09T03:46:45.340Z,12.76
2018-07-09T03:49:15.402Z,12.68
2018-07-09T03:54:20.194Z,12.75
2018-07-09T03:59:25.032Z,12.85
2018-07-09T04:01:54.095Z,12.84
2018-07-09T04:04:23.283Z,12.89
2018-07-09T04:06:52.369Z,12.98
2018-07-09T04:09:21.410Z,13.13
2018-07-09T04:11:52.427Z,13.32
2018-07-09T04:14:21.701Z,13.40
2018-07-09T04:16:52.861Z,13.51
2018-07-09T04:19:21.898Z,13.64
2018-07-09T04:21:50.965Z,13.87
2018-07-09T04:24:20.385Z,14.05
2018-07-09T04:26:49.690Z,14.23
2018-07-09T04:29:18.730Z,14.45
2018-07-09T04:34:26.895Z,14.85
2018-07-09T04:36:57.007Z,14.91
2018-07-09T04:44:39.410Z,15.44
2018-07-09T04:47:09.401Z,15.53
2018-07-09T04:52:16.110Z,15.79
2018-07-09T04:54:45.463Z,15.93
2018-07-09T04:57:16.013Z,16.02
2018-07-09T04:59:45.084Z,16.08
2018-07-09T05:04:54.090Z,16.32
2018-07-09T05:07:23.156Z,16.11
2018-07-09T05:09:52.214Z,16.14
2018-07-09T05:20:08.075Z,16.98
2018-07-09T05:22:37.140Z,17.00
2018-07-09T05:25:06.177Z,17.06
2018-07-09T05:27:35.500Z,16.99
2018-07-09T05:30:04.561Z,16.92
2018-07-09T05:35:09.499Z,17.12
2018-07-09T05:37:38.598Z,17.20
2018-07-09T05:40:07.752Z,17.40
2018-07-09T05:42:36.912Z,17.65
2018-07-09T05:45:05.954Z,17.92
2018-07-09T05:47:35.000Z,18.12
2018-07-09T05:50:05.515Z,18.41
2018-07-09T05:52:34.583Z,18.76
2018-07-09T05:55:04.706Z,19.04
2018-07-09T05:57:33.834Z,19.15
2018-07-09T06:02:47.694Z,19.58
2018-07-09T06:05:17.910Z,19.65
2018-07-09T06:07:46.985Z,19.60
2018-07-09T06:10:17.048Z,19.89
2018-07-09T06:12:47.059Z,20.21
2018-07-09T06:15:16.535Z,20.32
2018-07-09T06:17:45.579Z,20.21
2018-07-09T06:20:14.637Z,20.36
2018-07-09T06:22:46.550Z,20.30
2018-07-09T06:27:51.939Z,20.62
2018-07-09T06:30:20.997Z,20.77
2018-07-09T06:32:50.063Z,20.97
2018-07-09T06:35:19.253Z,21.14
2018-07-09T06:37:52.998Z,21.36
2018-07-09T06:40:24.036Z,21.49
2018-07-09T06:42:54.073Z,21.49
2018-07-09T06:45:23.161Z,21.56
2018-07-09T06:50:27.940Z,21.71
2018-07-09T06:52:57.002Z,21.69
2018-07-09T06:55:27.965Z,21.92
2018-07-09T07:00:33.150Z,22.19
2018-07-09T07:03:03.588Z,22.27
2018-07-09T07:05:34.581Z,22.19
2018-07-09T07:08:03.641Z,22.22
2018-07-09T07:10:33.019Z,22.27
2018-07-09T07:15:37.863Z,22.57
2018-07-09T07:18:08.118Z,22.47
2018-07-09T07:20:37.173Z,22.25
2018-07-09T07:25:42.031Z,22.44
2018-07-09T07:30:46.890Z,22.50
2018-07-09T07:33:16.944Z,22.49
2018-07-09T07:35:55.077Z,22.42
2018-07-09T07:43:37.777Z,22.47
2018-07-09T07:46:07.762Z,22.65
2018-07-09T07:48:37.025Z,22.66
2018-07-09T07:51:06.238Z,22.79
2018-07-09T07:53:35.264Z,22.80
2018-07-09T07:56:04.314Z,22.88
2018-07-09T07:58:33.717Z,22.71
2018-07-09T08:01:02.809Z,22.54
2018-07-09T08:03:33.808Z,22.52
2018-07-09T08:06:08.225Z,22.84
2018-07-09T08:08:38.252Z,23.19
2018-07-09T08:11:11.672Z,23.49
2018-07-09T08:13:38.833Z,23.52
2018-07-09T08:16:10.306Z,23.32
2018-07-09T08:18:43.242Z,23.29
2018-07-09T08:21:20.747Z,23.26
2018-07-09T08:23:54.749Z,23.45
2018-07-09T08:26:23.810Z,23.50
2018-07-09T08:28:56.629Z,23.63
2018-07-09T08:31:25.711Z,23.87
2018-07-09T08:33:54.721Z,23.91
2018-07-09T08:36:27.322Z,24.08
2018-07-09T08:38:56.423Z,24.07
2018-07-09T08:41:27.463Z,24.11
2018-07-09T08:43:57.908Z,24.23
2018-07-09T08:46:34.958Z,24.53
2018-07-09T08:49:04.013Z,24.76
2018-07-09T08:51:33.120Z,24.79
2018-07-09T08:54:02.206Z,25.18
2018-07-09T08:56:33.212Z,25.38
2018-07-09T08:59:05.803Z,25.23
2018-07-09T09:01:35.812Z,24.43
2018-07-09T09:04:05.818Z,24.84
2018-07-09T09:06:36.147Z,25.08
2018-07-09T09:09:05.190Z,25.58
2018-07-09T09:11:36.211Z,25.79
2018-07-09T09:16:41.076Z,25.87
2018-07-09T09:19:11.101Z,26.40
2018-07-09T09:26:53.002Z,27.81
2018-07-09T09:29:25.534Z,28.66
2018-07-09T09:32:02.168Z,29.07
2018-07-09T09:34:40.052Z,30.77
2018-07-09T09:37:09.090Z,31.84
2018-07-09T09:39:38.160Z,32.90
2018-07-09T09:42:08.175Z,32.98
2018-07-09T09:44:39.582Z,34.11
2018-07-09T09:47:10.573Z,34.74
2018-07-09T09:49:40.595Z,35.89
2018-07-09T09:52:16.955Z,36.27
2018-07-09T09:54:46.002Z,36.58
2018-07-09T09:57:15.054Z,37.24
2018-07-09T09:59:45.305Z,37.51
2018-07-09T10:04:50.331Z,37.51
2018-07-09T10:07:19.385Z,37.77
2018-07-09T10:09:48.438Z,38.41
2018-07-09T10:12:17.493Z,36.01
2018-07-09T10:14:46.645Z,33.28
2018-07-09T10:17:15.700Z,31.91
2018-07-09T10:19:44.752Z,30.61
2018-07-09T10:22:14.169Z,29.49
2018-07-09T10:24:43.235Z,29.78
2018-07-09T10:27:12.292Z,31.98
2018-07-09T10:29:41.416Z,34.05
2018-07-09T10:32:10.458Z,36.21
2018-07-09T10:37:15.300Z,38.49
2018-07-09T10:39:48.171Z,39.69
2018-07-09T10:42:25.052Z,38.95
2018-07-09T10:44:55.226Z,39.67
2018-07-09T10:47:24.287Z,39.16
2018-07-09T10:49:53.339Z,39.63
2018-07-09T10:52:22.379Z,37.27
2018-07-09T10:54:52.769Z,38.24
2018-07-09T10:57:21.821Z,38.91
2018-07-09T10:59:51.810Z,38.07
2018-07-09T11:02:21.867Z,38.02
2018-07-09T11:04:54.426Z,39.64
2018-07-09T11:07:27.306Z,39.94
2018-07-09T11:10:06.434Z,39.22
2018-07-09T11:12:35.463Z,40.65
2018-07-09T11:15:04.512Z,42.76
2018-07-09T11:17:33.737Z,41.35
2018-07-09T11:20:06.226Z,41.64
2018-07-09T11:22:36.217Z,42.14
2018-07-09T11:25:05.266Z,40.62
2018-07-09T11:27:35.237Z,41.99
2018-07-09T11:30:06.294Z,42.95
2018-07-09T11:32:36.554Z,43.26
2018-07-09T11:35:05.615Z,42.58
2018-07-09T11:37:38.089Z,42.63
2018-07-09T11:40:12.331Z,41.05
2018-07-09T11:42:41.396Z,41.03
2018-07-09T11:45:10.677Z,42.05
2018-07-09T11:47:39.821Z,39.61
2018-07-09T11:50:10.853Z,38.70
2018-07-09T11:52:39.914Z,39.64
2018-07-09T11:55:10.898Z,38.47
2018-07-09T11:57:41.170Z,37.46
2018-07-09T12:02:46.093Z,39.39
2018-07-09T12:05:15.245Z,39.60
2018-07-09T12:07:44.281Z,38.84
2018-07-09T12:10:14.491Z,39.69
2018-07-09T12:12:43.865Z,41.37
2018-07-09T12:15:12.925Z,40.56
2018-07-09T12:17:41.953Z,39.37
2018-07-09T12:20:12.397Z,36.88
2018-07-09T12:22:41.735Z,35.49
2018-07-09T12:25:10.779Z,36.78
2018-07-09T12:27:41.774Z,37.14
2018-07-09T12:30:10.816Z,37.34
2018-07-09T12:32:40.015Z,38.92
2018-07-09T12:35:09.992Z,40.86
2018-07-09T12:37:39.033Z,41.47
2018-07-09T12:40:08.101Z,42.26
2018-07-09T12:42:37.151Z,42.73
2018-07-09T12:45:06.190Z,41.90
2018-07-09T12:47:36.534Z,42.06
2018-07-09T12:52:41.398Z,41.66
2018-07-09T12:55:10.545Z,40.19
2018-07-09T12:57:39.955Z,39.93
2018-07-09T13:02:44.889Z,43.74
2018-07-09T13:05:22.073Z,44.36
2018-07-09T13:07:57.659Z,38.81
2018-07-09T13:10:31.386Z,41.14
2018-07-09T13:13:15.872Z,41.11
2018-07-09T13:15:52.943Z,42.82
2018-07-09T13:21:06.273Z,43.41
2018-07-09T13:23:37.305Z,43.74
2018-07-09T13:26:07.109Z,45.29
2018-07-09T13:28:36.212Z,43.87
2018-07-09T13:31:05.356Z,41.26
2018-07-09T13:36:10.181Z,41.04
2018-07-09T13:38:41.316Z,40.75
2018-07-09T13:41:11.506Z,39.23
2018-07-09T13:43:40.553Z,37.97
2018-07-09T13:48:45.400Z,39.10
2018-07-09T13:51:14.465Z,39.42
2018-07-09T13:53:48.352Z,40.62
2018-07-09T13:56:17.388Z,40.29
2018-07-09T13:58:47.560Z,40.80
2018-07-09T14:01:16.608Z,40.71
2018-07-09T14:03:51.220Z,41.23
2018-07-09T14:06:20.278Z,41.79
2018-07-09T14:08:49.350Z,41.71
2018-07-09T14:13:54.217Z,42.54
2018-07-09T14:16:23.686Z,43.20
2018-07-09T14:18:52.827Z,40.50
2018-07-09T14:21:21.789Z,40.54
2018-07-09T14:23:54.379Z,42.34
2018-07-09T14:26:23.965Z,40.95
2018-07-09T14:28:53.011Z,42.94
2018-07-09T14:31:22.073Z,41.64
2018-07-09T14:33:52.086Z,42.58
2018-07-09T14:36:21.322Z,43.46
2018-07-09T14:41:26.902Z,41.44
2018-07-09T14:43:55.968Z,42.06
2018-07-09T14:46:30.182Z,41.75
2018-07-09T14:48:59.228Z,42.12
2018-07-09T14:51:28.286Z,42.77
2018-07-09T14:54:01.693Z,39.94
2018-07-09T14:56:31.708Z,38.85
2018-07-09T14:59:08.369Z,39.57
2018-07-09T15:01:43.303Z,41.95
2018-07-09T15:04:17.842Z,43.54
2018-07-09T15:06:46.981Z,44.88
2018-07-09T15:09:16.034Z,46.23
2018-07-09T15:11:48.592Z,46.24
2018-07-09T15:14:18.624Z,46.24
2018-07-09T15:16:49.675Z,47.21
2018-07-09T15:19:20.709Z,47.58
2018-07-09T15:21:49.953Z,46.81
2018-07-09T15:24:19.047Z,46.62
2018-07-09T15:26:49.997Z,45.80
2018-07-09T15:29:19.053Z,44.46
2018-07-09T15:31:50.102Z,45.81
2018-07-09T15:34:20.472Z,44.92
2018-07-09T15:36:51.412Z,44.33
2018-07-09T15:39:20.477Z,45.38
2018-07-09T15:41:49.525Z,44.96
2018-07-09T15:44:18.845Z,44.41
2018-07-09T15:46:47.885Z,44.90
2018-07-09T15:49:16.995Z,46.95
2018-07-09T15:51:45.990Z,43.96
2018-07-09T15:56:50.853Z,43.42
2018-07-09T15:59:21.870Z,41.67
2018-07-09T16:01:54.412Z,41.23
2018-07-09T16:04:23.694Z,40.18
2018-07-09T16:06:53.656Z,40.49
2018-07-09T16:09:22.712Z,41.61
2018-07-09T16:11:52.814Z,41.01
2018-07-09T16:19:33.444Z,38.12
2018-07-09T16:22:02.549Z,38.77
2018-07-09T16:24:32.515Z,39.41
2018-07-09T16:27:02.978Z,40.03
2018-07-09T16:29:33.988Z,40.64
2018-07-09T16:32:03.046Z,38.20
2018-07-09T16:34:35.146Z,36.12
2018-07-09T16:37:08.556Z,34.34
2018-07-09T16:39:47.742Z,33.81
2018-07-09T16:42:21.611Z,33.14
2018-07-09T16:47:33.421Z,31.44
2018-07-09T16:50:08.968Z,30.49
2018-07-09T16:52:46.436Z,29.77
2018-07-09T16:57:56.729Z,29.43
2018-07-09T17:00:33.340Z,29.28
2018-07-09T17:03:07.021Z,28.98
2018-07-09T17:05:42.476Z,28.61
2018-07-09T17:08:16.809Z,28.30
2018-07-09T17:10:50.588Z,28.45
2018-07-09T17:13:23.769Z,28.39
2018-07-09T17:16:05.869Z,28.20
2018-07-09T17:18:39.794Z,28.13
2018-07-09T17:21:09.783Z,27.82
2018-07-09T17:23:52.644Z,27.43
2018-07-09T17:26:28.163Z,27.18
2018-07-09T17:29:01.083Z,26.70
2018-07-09T17:31:36.243Z,26.48
2018-07-09T17:34:08.251Z,26.34
2018-07-09T17:39:18.501Z,26.47
2018-07-09T17:41:51.626Z,26.46
2018-07-09T17:44:25.548Z,26.35
2018-07-09T17:47:01.197Z,26.39
2018-07-09T17:49:36.285Z,26.50
2018-07-09T17:52:10.221Z,26.33
2018-07-09T17:57:15.099Z,26.01
2018-07-09T17:59:47.637Z,25.99
2018-07-09T18:04:52.526Z,25.91
2018-07-09T18:07:22.497Z,25.84
2018-07-09T18:12:28.387Z,25.86
2018-07-09T18:14:57.445Z,25.90
2018-07-09T18:17:26.767Z,25.60
2018-07-09T18:19:55.809Z,25.54
2018-07-09T18:22:24.862Z,25.31
2018-07-09T18:24:54.129Z,25.16
2018-07-09T18:27:23.318Z,24.92
2018-07-09T18:29:52.374Z,24.84
2018-07-09T18:32:21.426Z,24.56
2018-07-09T18:34:50.933Z,24.20
2018-07-09T18:37:20.005Z,24.04
2018-07-09T18:39:49.073Z,23.91
2018-07-09T18:42:18.364Z,23.81
2018-07-09T18:44:47.417Z,23.81
2018-07-09T18:47:16.552Z,23.59
2018-07-09T18:49:45.602Z,23.32
2018-07-09T18:54:50.470Z,23.07
2018-07-09T18:57:19.533Z,23.00
2018-07-09T18:59:49.748Z,22.75
2018-07-09T19:02:18.780Z,22.48
2018-07-09T19:04:49.803Z,22.51
2018-07-09T19:07:19.834Z,22.24
2018-07-09T19:09:48.973Z,21.97
2018-07-09T19:12:18.018Z,21.87
2018-07-09T19:14:48.058Z,21.68
2018-07-09T19:17:17.107Z,21.56
2018-07-09T19:19:49.017Z,21.50
2018-07-09T19:22:18.077Z,21.33
2018-07-09T19:24:46.333Z,21.15
2018-07-09T19:27:14.590Z,21.14
2018-07-09T19:32:18.648Z,20.98
2018-07-09T19:34:46.970Z,20.98
2018-07-09T19:37:16.260Z,20.74
2018-07-09T19:39:44.365Z,20.74
2018-07-09T19:42:12.634Z,20.41
2018-07-09T19:47:16.649Z,20.36
2018-07-09T19:49:44.913Z,20.31
2018-07-09T19:52:13.201Z,20.51
2018-07-09T19:54:41.464Z,20.49
2018-07-09T19:57:10.655Z,20.34
2018-07-09T20:02:14.962Z,20.13
2018-07-09T20:04:44.227Z,20.04
2018-07-09T20:07:12.498Z,20.03
2018-07-09T20:09:41.673Z,20.13
2018-07-09T20:17:21.631Z,20.27
2018-07-09T20:19:50.934Z,20.13
2018-07-09T20:22:19.244Z,20.04
2018-07-09T20:27:23.307Z,20.07
2018-07-09T20:29:52.479Z,20.13
2018-07-09T20:34:56.542Z,19.98
2018-07-09T20:37:24.789Z,19.87
2018-07-09T20:39:53.047Z,19.74
2018-07-09T20:44:57.035Z,19.74
2018-07-09T20:47:25.297Z,19.81
2018-07-09T20:49:54.486Z,19.79
2018-07-09T20:54:58.550Z,19.62
2018-07-09T20:57:26.825Z,19.61
2018-07-09T20:59:55.093Z,19.57
2018-07-09T21:04:59.145Z,19.36
2018-07-09T21:07:27.404Z,19.37
2018-07-09T21:12:31.459Z,19.12
2018-07-09T21:14:59.769Z,18.94
2018-07-09T21:17:27.988Z,18.80
2018-07-09T21:19:56.263Z,18.79
2018-07-09T21:22:24.529Z,18.71
2018-07-09T21:24:52.796Z,18.60
2018-07-09T21:27:21.058Z,18.54
2018-07-09T21:29:49.509Z,18.45
2018-07-09T21:32:17.777Z,18.43
2018-07-09T21:34:46.048Z,18.45
2018-07-09T21:37:14.306Z,18.42
2018-07-09T21:39:42.688Z,18.34
2018-07-09T21:42:10.933Z,18.29
2018-07-09T21:44:39.221Z,18.21
2018-07-09T21:47:07.487Z,18.25
2018-07-09T21:49:35.760Z,18.16
2018-07-09T21:52:04.043Z,18.09
2018-07-09T21:54:32.310Z,18.08
2018-07-09T21:57:01.474Z,18.15
2018-07-09T21:59:29.732Z,18.26
2018-07-09T22:01:58.004Z,18.38
2018-07-09T22:04:26.288Z,18.31
2018-07-09T22:06:54.534Z,18.23
2018-07-09T22:09:22.801Z,18.24
2018-07-09T22:11:51.074Z,18.24
2018-07-09T22:16:55.074Z,18.30
2018-07-09T22:19:23.335Z,18.13
2018-07-09T22:21:51.621Z,18.05
2018-07-09T22:24:19.874Z,17.98
2018-07-09T22:26:48.133Z,17.95
2018-07-09T22:29:16.406Z,17.88
2018-07-09T22:36:57.179Z,18.00
2018-07-09T22:39:26.237Z,18.04
2018-07-09T22:41:55.338Z,17.88
2018-07-09T22:44:25.339Z,17.76
2018-07-09T22:49:30.769Z,17.75
2018-07-09T22:51:59.821Z,17.84
2018-07-09T22:54:28.925Z,17.90
2018-07-09T22:57:05.837Z,17.73
2018-07-09T22:59:35.305Z,17.61
2018-07-09T23:02:04.349Z,17.69
2018-07-09T23:04:33.425Z,17.56
2018-07-09T23:07:03.402Z,17.46
2018-07-09T23:12:08.173Z,17.51
2018-07-09T23:14:37.225Z,17.66
2018-07-09T23:17:24.137Z,17.66
2018-07-09T23:19:53.266Z,17.64
2018-07-09T23:22:21.538Z,17.66
2018-07-09T23:27:25.572Z,17.71
2018-07-09T23:32:29.553Z,17.67
2018-07-09T23:34:57.813Z,17.67
2018-07-09T23:37:26.063Z,17.52
2018-07-09T23:42:30.043Z,17.37
2018-07-09T23:44:58.321Z,17.30
2018-07-09T23:47:26.681Z,17.31
2018-07-09T23:49:55.123Z,17.28
2018-07-09T23:52:23.394Z,17.23
2018-07-09T23:54:51.649Z,17.17
2018-07-09T23:57:20.708Z,17.11
